Mc Connell Air Force Base
KIAB : now visible

Airfield :











YOU CAN JOIN US ON...

 
LOGIN :

Register | Disclaimer

   EN    FR    IT 

 









Legend :    VFR   Marginal VFR   IFR   Intensive IFR   Very Intensive IFR
Visi :
Ceiling :
>= 8 km
>= 3000ft
5 to 8 km
1000 to 3000 ft
1500m to 5 km
500 to 1000 ft
800 to 1500m
200 to 500 ft
< 800m
< 200 ft
Symbols :   Thunderstorms  Fog  Heavy snow  Heavy precipitations  Wind > 20 kt






- Airport Elevation : 1371 ft
- IATA code : IAB


KIAB - Mc Connell Air Force Base

CURRENT METAR :
  • 231456Z AUTO 34010KT 10SM CLR 02/M05 A3015 RMK AO2 SLP223 T00201050 52011 $

EXPIRED METARs :
  • 231356Z AUTO 30004KT 10SM CLR M00/M06 A3015 RMK AO2 SLP224 T10051061 $
  • 231256Z AUTO 30007KT 10SM CLR M01/M06 A3013 RMK AO2 SLP217 T10061062 $

TAF AMD TAF KIAB
Valid from the 22 at 18:00 until the 23 at 19:00 UTC


221809Z 2218/2319 VRB06KT 9999 FEW035 SCT050 BKN130 QNH3015INS
BECMG 2317/2318 34015G20KT 9999 SKC 510063 QNH3021INS TX08/2220Z TNM02/2310Z LAST NO AMDS AFT 2218 NEXT 2401
KZKC FIR / North America



MET'MAP, your aeronautical weather chart ! - Copyright ORBIFLY December 2007 - Disclaimer

ORBIFLY MET'MAP TEAM :

Programming & Development : Alexandra Zaïnal
Concept & original design : Baudouin d'Aumeries
Assistance for programming : Marc-Olivier Méhu
Technical & hardware support : Manuel Goepfert

Contact : metmap@orbifly.com




SOURCES & CREDITS :

   NOAA       Earth
Advisory